Butte, MT

4:37 PM MST on January 19, 2017 (GMT -0700)
Mooney | | Change Station

Elev 5545 ft 45.95 °N, 112.50 °W | Updated 44 minutes ago

Partly Cloudy
Partly Cloudy
35 °F
Feels Like 27 °F
N
10
Wind Variable Wind from SW

Today
High -- | Low -- °F
--% Chance of Precip.
Yesterday
High -- | Low -- °F
Precip. -- in
Pressure 29.61 in
Visibility 10.0 miles
Clouds Few 5000 ft
Few 12000 ft
Windchill 27 °F
Dew Point 25 °F
Humidity 67%
Rainfall 0.00 in
Snow Depth Not available.
8:04 AM 5:17 PM
Waning Gibbous, 50% visible
METAR KBTM 192253Z AUTO 22009KT 10SM FEW050 FEW120 02/M04 A2952 RMK AO2 SLP027 T00171039
Pressure 29.61 in
Visibility 10.0 miles
Clouds Few 5000 ft
Few 12000 ft
Windchill 27 °F
Dew Point 25 °F
Humidity 67%
Rainfall 0.00 in
Snow Depth Not available.
8:04 AM 5:17 PM
Waning Gibbous, 50% visible
METAR KBTM 192253Z AUTO 22009KT 10SM FEW050 FEW120 02/M04 A2952 RMK AO2 SLP027 T00171039

Get Your Daily Forecast Email!

Thanks for signing up!

Be on the lookout for a verification email in your inbox.

You'll start receiving the daily forecast at 8 AM.

×

10-Day Weather Forecast

Almanac

Astronomy

Jan. 19, 2017 Rise Set
Actual Time
Civil Twilight
Nautical Twilight
Astronomical Twilight
Moon
Length of Visible Light
Length of Day
Tomorrow will be .
, % of the Moon is Illuminated

Today's Extremes

State Highs State Lows

Community

WunderPhotos

Upload Photos

1,962,540 photos uploaded!

WunderBlog® & News

Nearby

Air Quality

  Air Quality AQ Index Pollutant
Not available.

Snow Depth

Station Depth Elevation

Earthquake Activity

City Distance Mag. Time & Date
Minimum magnitude displayed is 2.5.

Coastal Water Temperatures

Place Temperature

Stations

Nearby Weather Stations

Station Location Temp. Windchill Dew Point Humidity Wind Precip. Elev Updated Type
                   

Watches & Warnings

There are currently no watches in effect.